Time;durP1;ratioP1;P1;durP2;ratioP2;P2;SDS_P1;SDS_P2;PMS_P1;PMS_P2;Temp;Humidity;BMP_temperature;BMP_pressure;BME280_temperature;BME280_humidity;BME280_pressure;Samples;Min_cycle;Max_cycle;Signal;HPM_P1;HPM_P2
2022/03/24 00:00:23;;;;;;;19.08;15.30;;;10.50;98.20;;;;;;5040383;28;20033;-75
2022/03/24 00:02:49;;;;;;;18.55;15.27;;;10.40;98.70;;;;;;5041988;28;20508;-74
2022/03/24 00:05:15;;;;;;;20.75;15.32;;;10.40;99.30;;;;;;5042277;28;20124;-75
2022/03/24 00:07:41;;;;;;;21.40;17.42;;;10.30;99.50;;;;;;5040216;28;20116;-74
2022/03/24 00:10:08;;;;;;;22.20;17.35;;;10.10;99.90;;;;;;5043524;28;20098;-74
2022/03/24 00:12:37;;;;;;;21.67;17.65;;;9.80;99.90;;;;;;5044208;28;20024;-75
2022/03/24 00:15:04;;;;;;;21.67;17.38;;;9.70;99.90;;;;;;5044646;28;20029;-74
2022/03/24 00:17:31;;;;;;;22.33;17.92;;;9.60;99.90;;;;;;5048641;28;20036;-75
2022/03/24 00:19:57;;;;;;;22.35;17.73;;;9.50;99.90;;;;;;5044638;28;20451;-74
2022/03/24 00:22:23;;;;;;;20.90;16.83;;;9.50;99.90;;;;;;5046257;28;20436;-74
2022/03/24 00:24:48;;;;;;;22.88;18.08;;;9.50;99.90;;;;;;5041927;28;20020;-74
2022/03/24 00:27:15;;;;;;;19.42;17.20;;;9.50;99.90;;;;;;5050260;28;20091;-75
2022/03/24 00:29:42;;;;;;;20.98;16.90;;;9.50;99.90;;;;;;5044593;28;20421;-74
2022/03/24 00:32:08;;;;;;;20.30;16.58;;;9.50;99.90;;;;;;5050513;28;20051;-74
2022/03/24 00:34:34;;;;;;;19.77;16.77;;;9.50;99.90;;;;;;5048500;28;20430;-74
2022/03/24 00:37:00;;;;;;;21.25;17.40;;;9.50;99.90;;;;;;5050856;28;20071;-74
2022/03/24 00:39:26;;;;;;;22.25;17.02;;;9.60;99.90;;;;;;5052564;28;20049;-74
2022/03/24 00:41:52;;;;;;;17.80;15.90;;;9.60;99.90;;;;;;5045506;28;20033;-74
2022/03/24 00:44:21;;;;;;;19.45;15.98;;;9.70;99.90;;;;;;5048090;28;20087;-74
2022/03/24 00:46:46;;;;;;;18.90;15.85;;;9.50;99.90;;;;;;5044629;28;20037;-74
2022/03/24 00:49:12;;;;;;;19.70;16.65;;;9.40;99.90;;;;;;5047280;28;20155;-75
2022/03/24 00:51:38;;;;;;;23.83;16.58;;;9.20;99.90;;;;;;5049402;28;20025;-74
2022/03/24 00:54:04;;;;;;;24.08;18.45;;;9.10;99.90;;;;;;5045506;28;20032;-75
2022/03/24 00:56:29;;;;;;;29.55;22.88;;;8.70;99.90;;;;;;5047122;28;20033;-74
2022/03/24 00:58:55;;;;;;;28.52;22.45;;;8.20;99.90;;;;;;5047348;28;20470;-74
2022/03/24 01:01:21;;;;;;;30.85;23.50;;;8.00;99.90;;;;;;5046324;28;20098;-74
2022/03/24 01:03:48;;;;;;;29.33;22.88;;;7.80;99.90;;;;;;5046585;28;20028;-74
2022/03/24 01:06:16;;;;;;;29.52;23.08;;;7.70;99.90;;;;;;5049949;28;20515;-74
2022/03/24 01:08:43;;;;;;;29.60;23.05;;;7.80;99.90;;;;;;5046956;28;20025;-74
2022/03/24 01:13:44;;;;;;;28.58;23.08;;;7.90;99.90;;;;;;5758989;22;20120;-74
2022/03/24 01:16:10;;;;;;;30.48;22.63;;;7.90;99.90;;;;;;5132918;23;20061;-75
2022/03/24 01:18:37;;;;;;;28.30;23.10;;;7.80;99.90;;;;;;5003579;28;20025;-75
2022/03/24 01:21:04;;;;;;;29.75;22.65;;;7.90;99.90;;;;;;5001054;28;20048;-76
2022/03/24 01:23:30;;;;;;;26.40;21.70;;;8.00;99.90;;;;;;4999814;28;20018;-75
2022/03/24 01:25:59;;;;;;;26.88;21.35;;;8.00;99.90;;;;;;5003564;28;20382;-75
2022/03/24 01:28:26;;;;;;;25.00;21.23;;;8.00;99.90;;;;;;4999692;28;20434;-75
2022/03/24 01:30:52;;;;;;;28.17;20.85;;;7.90;99.90;;;;;;5002988;28;20456;-75
2022/03/24 01:33:17;;;;;;;23.23;19.83;;;8.00;99.90;;;;;;5003413;28;20041;-76
2022/03/24 01:35:44;;;;;;;26.23;20.80;;;8.10;99.90;;;;;;5000277;28;20037;-75
2022/03/24 01:38:10;;;;;;;25.85;21.15;;;8.00;99.90;;;;;;4998335;28;20045;-75
2022/03/24 01:40:36;;;;;;;25.45;19.92;;;8.00;99.90;;;;;;4999435;28;20037;-76
2022/03/24 01:43:02;;;;;;;24.88;19.65;;;8.00;99.90;;;;;;5019384;28;20030;-75
2022/03/24 01:45:28;;;;;;;25.08;20.52;;;8.10;99.90;;;;;;5005607;28;20022;-76
2022/03/24 01:47:53;;;;;;;23.35;19.67;;;8.20;99.90;;;;;;5003861;28;20056;-76
2022/03/24 01:50:19;;;;;;;24.42;20.75;;;8.10;99.90;;;;;;4999721;28;20104;-76
2022/03/24 01:52:45;;;;;;;25.30;19.52;;;8.10;99.90;;;;;;5008104;28;20026;-76
2022/03/24 01:55:13;;;;;;;25.38;20.05;;;8.10;99.90;;;;;;5008311;28;20105;-75
2022/03/24 01:57:40;;;;;;;23.95;19.60;;;8.10;99.90;;;;;;5015001;28;20038;-76
2022/03/24 02:00:07;;;;;;;24.20;19.70;;;8.10;99.90;;;;;;5014230;28;20022;-76
2022/03/24 02:02:34;;;;;;;24.15;19.17;;;8.10;99.90;;;;;;5013330;28;20044;-76
2022/03/24 02:04:59;;;;;;;23.35;19.02;;;8.20;99.90;;;;;;5004473;28;20029;-75
2022/03/24 02:07:25;;;;;;;27.02;19.05;;;8.20;99.90;;;;;;5001166;28;20375;-75
2022/03/24 02:09:50;;;;;;;24.17;18.83;;;8.20;99.90;;;;;;5006937;28;20064;-76
2022/03/24 02:12:16;;;;;;;22.25;19.15;;;8.10;99.90;;;;;;5014197;28;20026;-75
2022/03/24 02:14:43;;;;;;;21.70;18.17;;;8.00;99.90;;;;;;5010767;28;20053;-76
2022/03/24 02:17:09;;;;;;;23.52;19.63;;;7.90;99.90;;;;;;5006527;28;20567;-76
2022/03/24 02:19:36;;;;;;;23.95;18.83;;;7.90;99.90;;;;;;5004482;28;20026;-76
2022/03/24 02:22:22;;;;;;;24.20;18.10;;;7.90;99.90;;;;;;5000143;28;20027;-75
2022/03/24 02:24:48;;;;;;;23.58;18.95;;;7.80;99.90;;;;;;5007202;28;20038;-75
2022/03/24 02:27:14;;;;;;;22.83;18.48;;;7.80;99.90;;;;;;5011051;28;20034;-75
2022/03/24 02:29:40;;;;;;;25.80;17.70;;;7.80;99.90;;;;;;5008818;28;20037;-73
2022/03/24 02:32:11;;;;;;;23.35;17.83;;;7.80;99.90;;;;;;5003119;28;20154;-73
2022/03/24 02:34:37;;;;;;;25.75;18.38;;;7.80;99.90;;;;;;4999356;28;20514;-73
2022/03/24 02:37:06;;;;;;;22.65;17.83;;;7.80;99.90;;;;;;5014223;28;20038;-73
2022/03/24 02:39:33;;;;;;;21.35;17.08;;;7.70;99.90;;;;;;5002140;28;20032;-72
2022/03/24 02:42:01;;;;;;;20.60;17.40;;;7.80;99.90;;;;;;5001982;28;20500;-72
2022/03/24 02:44:30;;;;;;;23.65;17.73;;;7.80;99.90;;;;;;4998344;28;20552;-75
2022/03/24 02:46:57;;;;;;;21.67;17.48;;;7.80;99.90;;;;;;5001540;28;20038;-75
2022/03/24 02:49:26;;;;;;;23.20;17.92;;;8.00;99.90;;;;;;4997159;28;20030;-75
2022/03/24 02:51:53;;;;;;;23.38;16.48;;;8.20;99.90;;;;;;5001843;28;20097;-75
2022/03/24 02:54:21;;;;;;;20.88;16.10;;;8.20;99.90;;;;;;5003990;28;20100;-75
2022/03/24 02:56:47;;;;;;;19.92;15.35;;;8.40;99.90;;;;;;5005709;28;20026;-75
2022/03/24 02:59:13;;;;;;;17.55;15.05;;;8.50;99.90;;;;;;4999641;28;20033;-75
2022/03/24 03:01:47;;;;;;;18.48;15.50;;;8.60;99.90;;;;;;4999931;28;20047;-75
2022/03/24 03:04:14;;;;;;;20.58;15.38;;;8.70;99.90;;;;;;5000978;28;20042;-75
2022/03/24 03:06:40;;;;;;;21.52;15.57;;;8.70;99.90;;;;;;5005339;28;20141;-75
2022/03/24 03:09:06;;;;;;;18.48;15.38;;;8.70;99.90;;;;;;5008159;28;20045;-73
2022/03/24 03:11:31;;;;;;;18.45;16.42;;;8.70;99.90;;;;;;5009284;28;20022;-75
2022/03/24 03:14:01;;;;;;;18.02;14.55;;;8.80;99.90;;;;;;5001047;28;20445;-76
2022/03/24 03:16:27;;;;;;;16.25;13.30;;;8.90;99.90;;;;;;5008593;28;20078;-76
2022/03/24 03:18:55;;;;;;;20.63;13.75;;;8.80;99.90;;;;;;5010587;28;20041;-75
2022/03/24 03:21:21;;;;;;;16.63;12.85;;;8.80;99.60;;;;;;5010609;28;20034;-75
2022/03/24 03:23:47;;;;;;;14.73;12.10;;;8.80;98.90;;;;;;5010521;28;20030;-75
2022/03/24 03:26:17;;;;;;;15.90;11.75;;;8.80;98.70;;;;;;5012192;28;20101;-75
2022/03/24 03:28:42;;;;;;;15.45;12.30;;;8.80;98.40;;;;;;5011495;28;20034;-75
2022/03/24 03:31:09;;;;;;;16.65;12.20;;;8.90;98.20;;;;;;5009847;28;20081;-75
2022/03/24 03:33:36;;;;;;;15.65;11.73;;;8.80;98.30;;;;;;5011152;28;20489;-75
2022/03/24 03:36:03;;;;;;;15.88;11.65;;;8.80;98.70;;;;;;5010954;28;20026;-75
2022/03/24 03:38:30;;;;;;;18.10;13.18;;;8.70;98.30;;;;;;5010920;28;20022;-75
2022/03/24 03:40:56;;;;;;;17.38;13.25;;;8.70;98.90;;;;;;5013307;28;20033;-75
2022/03/24 03:43:23;;;;;;;14.15;12.30;;;8.70;98.50;;;;;;5008461;28;20030;-75
2022/03/24 03:45:49;;;;;;;16.20;11.35;;;8.70;98.70;;;;;;5006538;28;20038;-75
2022/03/24 03:48:15;;;;;;;17.67;12.73;;;8.70;98.50;;;;;;5007933;28;20080;-75
2022/03/24 03:50:44;;;;;;;16.98;12.35;;;8.70;98.40;;;;;;5006136;28;20061;-75
2022/03/24 03:53:10;;;;;;;14.48;12.27;;;8.70;98.70;;;;;;5007151;28;20054;-75
2022/03/24 03:55:37;;;;;;;16.17;11.70;;;8.70;98.60;;;;;;5002878;28;20109;-75
2022/03/24 03:58:04;;;;;;;16.13;12.50;;;8.70;98.40;;;;;;5006915;28;20031;-75
2022/03/24 04:03:14;;;;;;;14.90;12.27;;;8.80;98.30;;;;;;5008251;28;20084;-73
2022/03/24 04:05:39;;;;;;;13.95;11.95;;;8.70;98.70;;;;;;5004252;28;20030;-73
2022/03/24 04:08:07;;;;;;;19.17;12.32;;;8.60;99.10;;;;;;5005734;28;20034;-73
2022/03/24 04:10:33;;;;;;;15.40;12.05;;;8.60;99.00;;;;;;5004479;28;20140;-73
2022/03/24 04:12:59;;;;;;;19.13;11.98;;;8.60;99.30;;;;;;5013138;28;20112;-73
2022/03/24 04:15:26;;;;;;;16.77;12.55;;;8.60;98.90;;;;;;5012268;28;20537;-73
2022/03/24 04:17:52;;;;;;;19.63;12.85;;;8.70;98.70;;;;;;5008413;28;20033;-73
2022/03/24 04:20:21;;;;;;;16.70;12.45;;;8.60;98.90;;;;;;5007060;28;20022;-73
2022/03/24 04:22:50;;;;;;;19.30;13.85;;;8.50;98.90;;;;;;5006815;28;20045;-73
2022/03/24 04:25:17;;;;;;;16.98;12.50;;;8.50;98.90;;;;;;5012257;28;20022;-73
2022/03/24 04:27:43;;;;;;;16.80;12.32;;;8.50;99.00;;;;;;5014683;28;20034;-72
2022/03/24 04:30:12;;;;;;;15.85;11.95;;;8.50;99.10;;;;;;5014735;28;20030;-73
2022/03/24 04:32:38;;;;;;;16.77;12.35;;;8.50;99.40;;;;;;5007108;28;20019;-72
2022/03/24 04:35:08;;;;;;;17.25;13.13;;;8.50;99.40;;;;;;5016862;28;20039;-73
2022/03/24 04:37:35;;;;;;;16.02;13.30;;;8.50;99.30;;;;;;5012514;28;20022;-72
2022/03/24 04:40:02;;;;;;;17.63;12.35;;;8.40;99.50;;;;;;5003546;28;20368;-73
2022/03/24 04:42:27;;;;;;;17.05;12.98;;;8.40;99.40;;;;;;5012231;28;20044;-73
2022/03/24 04:44:53;;;;;;;13.90;11.95;;;8.50;99.40;;;;;;5014984;28;20097;-72
2022/03/24 04:47:19;;;;;;;16.92;12.80;;;8.40;99.40;;;;;;5015685;28;20061;-73
2022/03/24 04:49:45;;;;;;;16.67;12.75;;;8.50;99.10;;;;;;5014923;28;20030;-73
2022/03/24 04:52:12;;;;;;;18.48;12.82;;;8.50;99.30;;;;;;5013293;28;20038;-73
2022/03/24 04:54:37;;;;;;;16.85;11.95;;;8.50;99.30;;;;;;5013303;28;20025;-73
2022/03/24 04:57:03;;;;;;;16.90;12.95;;;8.50;99.10;;;;;;5013848;28;20030;-72
2022/03/24 04:59:29;;;;;;;17.27;12.52;;;8.40;99.30;;;;;;5014706;28;20024;-72
2022/03/24 05:01:58;;;;;;;16.90;13.38;;;8.40;99.60;;;;;;5016276;28;20045;-72
2022/03/24 05:04:24;;;;;;;16.50;12.65;;;8.40;99.00;;;;;;5005535;28;20390;-72
2022/03/24 05:06:53;;;;;;;16.83;12.77;;;8.40;99.40;;;;;;5011504;28;20030;-72
2022/03/24 05:09:19;;;;;;;16.75;13.05;;;8.40;99.60;;;;;;5012335;28;20522;-73
2022/03/24 05:11:45;;;;;;;16.30;12.75;;;8.40;99.30;;;;;;5008428;28;20104;-73
2022/03/24 05:14:12;;;;;;;19.17;12.95;;;8.30;99.80;;;;;;5012218;28;20080;-72
2022/03/24 05:16:38;;;;;;;18.88;13.55;;;8.30;99.90;;;;;;5006200;28;20079;-72
2022/03/24 05:19:04;;;;;;;20.65;13.13;;;8.20;99.90;;;;;;5008932;28;20033;-72
2022/03/24 05:21:34;;;;;;;18.92;13.13;;;8.20;99.70;;;;;;5012053;28;20038;-72
2022/03/24 05:24:00;;;;;;;16.70;12.95;;;8.20;99.90;;;;;;5010006;28;20018;-73
2022/03/24 05:26:26;;;;;;;15.90;13.23;;;8.20;99.90;;;;;;5004649;28;20061;-73
2022/03/24 05:28:52;;;;;;;16.27;13.15;;;8.20;99.90;;;;;;5005668;28;20099;-73
2022/03/24 05:31:18;;;;;;;18.23;13.65;;;8.10;99.90;;;;;;5004939;28;20023;-73
2022/03/24 05:33:45;;;;;;;20.08;13.20;;;8.10;99.90;;;;;;5011385;28;20422;-72
2022/03/24 05:36:11;;;;;;;16.25;13.50;;;8.10;99.90;;;;;;5008615;28;20141;-72
2022/03/24 05:38:37;;;;;;;18.02;13.77;;;8.00;99.90;;;;;;5019955;28;20022;-73
2022/03/24 05:41:05;;;;;;;17.77;13.40;;;8.00;99.90;;;;;;5006040;28;20453;-73
2022/03/24 05:43:32;;;;;;;19.45;14.43;;;8.10;99.90;;;;;;5004447;28;20034;-73
2022/03/24 05:45:57;;;;;;;22.65;14.68;;;8.10;99.90;;;;;;5010203;28;20027;-72
2022/03/24 05:48:24;;;;;;;19.20;15.18;;;8.00;99.90;;;;;;5010144;28;20030;-73
2022/03/24 05:50:50;;;;;;;18.67;14.50;;;8.00;99.90;;;;;;5005818;28;20389;-73
2022/03/24 05:53:16;;;;;;;21.13;14.75;;;8.00;99.90;;;;;;5005480;28;20105;-73
2022/03/24 05:55:42;;;;;;;19.10;15.10;;;8.00;99.90;;;;;;5005616;28;20045;-70
2022/03/24 05:58:08;;;;;;;21.10;15.27;;;8.00;99.90;;;;;;5006660;28;20031;-75
2022/03/24 06:00:38;;;;;;;18.50;15.30;;;7.90;99.90;;;;;;5010280;28;20033;-75
2022/03/24 06:03:07;;;;;;;18.67;14.77;;;8.00;99.90;;;;;;5007904;28;20080;-74
2022/03/24 06:05:34;;;;;;;18.05;14.45;;;8.00;99.90;;;;;;5005582;28;20018;-75
2022/03/24 06:08:03;;;;;;;18.20;15.20;;;8.00;99.90;;;;;;5006099;28;20036;-74
2022/03/24 06:10:31;;;;;;;17.23;14.73;;;8.00;99.90;;;;;;4996562;28;20443;-75
2022/03/24 06:12:58;;;;;;;16.95;14.25;;;8.00;99.90;;;;;;5009180;28;20398;-75
2022/03/24 06:15:24;;;;;;;20.08;14.57;;;8.10;99.90;;;;;;5004491;28;20538;-75
2022/03/24 06:17:49;;;;;;;19.52;13.65;;;8.20;99.90;;;;;;5009308;28;20109;-75
2022/03/24 06:20:16;;;;;;;18.17;14.55;;;8.20;99.90;;;;;;5008489;28;20129;-75
2022/03/24 06:22:54;;;;;;;18.42;13.82;;;8.20;99.90;;;;;;5004615;28;20045;-75
2022/03/24 06:25:20;;;;;;;17.45;14.30;;;8.20;99.90;;;;;;4993488;28;20138;-76
2022/03/24 06:27:50;;;;;;;16.95;14.13;;;8.20;99.90;;;;;;5005427;28;20042;-75
2022/03/24 06:30:16;;;;;;;21.55;15.43;;;8.20;99.90;;;;;;5006681;28;20184;-75
2022/03/24 06:32:43;;;;;;;22.17;15.05;;;8.30;99.90;;;;;;5009673;28;20054;-75
2022/03/24 06:35:09;;;;;;;27.05;16.23;;;8.20;99.90;;;;;;5007114;28;20525;-75
2022/03/24 06:37:41;;;;;;;23.85;15.02;;;8.30;99.90;;;;;;5005021;28;20030;-75
2022/03/24 06:40:13;;;;;;;18.63;15.45;;;8.40;99.90;;;;;;5002666;28;20033;-76
2022/03/24 06:42:39;;;;;;;22.85;16.02;;;8.30;99.90;;;;;;5003066;28;20080;-76
2022/03/24 06:45:06;;;;;;;23.50;16.58;;;8.30;99.90;;;;;;5006191;28;20115;-77
2022/03/24 06:47:32;;;;;;;19.05;15.35;;;8.40;99.90;;;;;;5007636;28;20022;-76
2022/03/24 06:49:58;;;;;;;19.67;15.68;;;8.50;99.90;;;;;;5003317;28;20378;-76
2022/03/24 06:52:24;;;;;;;20.65;15.15;;;8.50;99.90;;;;;;5018876;28;20026;-76
2022/03/24 06:54:49;;;;;;;20.30;15.80;;;8.50;99.90;;;;;;5005216;28;20026;-76
2022/03/24 06:57:15;;;;;;;19.70;15.63;;;8.60;99.90;;;;;;5011299;28;20030;-76
2022/03/24 06:59:42;;;;;;;23.42;15.38;;;8.60;99.90;;;;;;5010673;28;20445;-76
2022/03/24 07:02:08;;;;;;;22.88;15.02;;;8.70;99.90;;;;;;5011123;28;20073;-76
2022/03/24 07:04:34;;;;;;;22.92;16.85;;;8.80;99.90;;;;;;5011217;28;20052;-77
2022/03/24 07:07:00;;;;;;;20.00;15.82;;;8.90;99.90;;;;;;5012066;28;20474;-76
2022/03/24 07:09:26;;;;;;;18.40;15.27;;;8.90;99.90;;;;;;5011449;28;20061;-76
2022/03/24 07:11:52;;;;;;;18.20;15.10;;;9.10;99.90;;;;;;5026257;28;20033;-77
2022/03/24 07:14:17;;;;;;;20.17;14.35;;;9.20;99.90;;;;;;5011089;28;20036;-77
2022/03/24 07:16:44;;;;;;;16.83;14.70;;;9.30;99.90;;;;;;5011262;28;20034;-77
2022/03/24 07:19:09;;;;;;;19.20;14.27;;;9.40;99.90;;;;;;5029103;28;20060;-76
2022/03/24 07:21:36;;;;;;;21.67;14.68;;;9.50;99.90;;;;;;5017730;28;20534;-77
2022/03/24 07:24:02;;;;;;;20.15;15.15;;;9.60;99.90;;;;;;5017746;28;20506;-76
2022/03/24 07:26:28;;;;;;;22.70;15.05;;;9.60;99.90;;;;;;5011609;28;20516;-76
2022/03/24 07:28:54;;;;;;;20.92;14.88;;;9.70;99.90;;;;;;5018196;28;20061;-76
2022/03/24 07:31:20;;;;;;;21.25;14.85;;;9.80;99.90;;;;;;5018309;28;20441;-76
2022/03/24 07:33:48;;;;;;;20.38;14.75;;;9.90;99.90;;;;;;5017536;28;20037;-76
2022/03/24 07:36:15;;;;;;;19.60;14.25;;;10.00;99.90;;;;;;5014508;28;20073;-85
2022/03/24 07:38:41;;;;;;;17.10;12.88;;;10.10;99.90;;;;;;5014161;28;20026;-76
2022/03/24 07:41:09;;;;;;;17.20;12.88;;;10.30;99.70;;;;;;5010028;28;20046;-77
2022/03/24 07:43:34;;;;;;;17.23;12.68;;;10.40;99.50;;;;;;5004096;28;20048;-76
2022/03/24 07:46:00;;;;;;;17.42;12.57;;;10.50;99.30;;;;;;5005421;28;20030;-76
2022/03/24 07:48:26;;;;;;;16.83;12.32;;;10.50;99.00;;;;;;5004328;28;20058;-76
2022/03/24 07:50:53;;;;;;;16.92;12.77;;;10.60;98.90;;;;;;5010844;28;20061;-76
2022/03/24 07:53:42;;;;;;;16.20;12.50;;;10.70;99.40;;;;;;5008238;28;20037;-76
2022/03/24 07:56:08;;;;;;;19.70;12.50;;;10.90;99.70;;;;;;5014527;28;20029;-76
2022/03/24 07:58:34;;;;;;;18.90;12.43;;;11.00;98.50;;;;;;5005924;28;20556;-76
2022/03/24 08:01:01;;;;;;;22.17;12.27;;;11.10;98.70;;;;;;5001463;28;20069;-76
2022/03/24 08:03:27;;;;;;;16.10;11.73;;;11.20;97.80;;;;;;5007958;28;20026;-76
2022/03/24 08:05:53;;;;;;;15.40;11.80;;;11.30;98.10;;;;;;5011568;28;20120;-76
2022/03/24 08:08:19;;;;;;;18.00;12.75;;;11.30;97.70;;;;;;5007541;28;20030;-76
2022/03/24 08:10:47;;;;;;;17.02;12.52;;;11.40;98.10;;;;;;5005769;28;20033;-76
2022/03/24 08:13:15;;;;;;;16.90;12.25;;;11.50;98.30;;;;;;5006094;28;20095;-73
2022/03/24 08:15:41;;;;;;;15.95;12.00;;;11.60;98.50;;;;;;5005908;28;20057;-75
2022/03/24 08:18:09;;;;;;;16.50;12.27;;;11.60;98.80;;;;;;5005060;28;20034;-73
2022/03/24 08:20:36;;;;;;;17.63;12.25;;;11.70;97.90;;;;;;5009761;28;20032;-71
2022/03/24 08:23:03;;;;;;;17.25;12.40;;;11.90;98.30;;;;;;5004431;28;20064;-69
2022/03/24 08:25:29;;;;;;;16.50;12.02;;;12.00;98.10;;;;;;5003790;28;20104;-71
2022/03/24 08:27:56;;;;;;;15.10;12.82;;;12.00;97.90;;;;;;5005922;28;20105;-71
2022/03/24 08:30:22;;;;;;;17.33;12.55;;;12.10;97.30;;;;;;5008298;28;20027;-71
2022/03/24 08:32:48;;;;;;;13.88;12.00;;;12.10;97.40;;;;;;5007461;28;20030;-71
2022/03/24 08:35:14;;;;;;;17.45;12.82;;;12.30;97.80;;;;;;5004607;28;20022;-71
2022/03/24 08:37:40;;;;;;;16.80;12.38;;;12.30;97.20;;;;;;5002333;28;20037;-71
2022/03/24 08:40:07;;;;;;;17.08;13.32;;;12.40;97.10;;;;;;5006483;28;20133;-71
2022/03/24 08:42:36;;;;;;;18.55;12.57;;;12.60;97.00;;;;;;5009152;28;20039;-71
2022/03/24 08:45:02;;;;;;;18.98;12.73;;;12.70;97.30;;;;;;5007649;28;20030;-70
2022/03/24 08:47:28;;;;;;;17.90;12.93;;;12.80;96.90;;;;;;5009718;28;20506;-70
2022/03/24 08:49:53;;;;;;;18.52;13.10;;;13.00;97.00;;;;;;5005920;28;20031;-71
2022/03/24 08:52:21;;;;;;;22.35;14.15;;;13.30;96.40;;;;;;5011305;28;20022;-71
2022/03/24 08:54:48;;;;;;;20.85;13.80;;;13.50;96.00;;;;;;5015643;28;20034;-71
2022/03/24 08:57:13;;;;;;;18.67;14.60;;;14.30;95.90;;;;;;5015534;28;20032;-71
2022/03/24 08:59:39;;;;;;;17.70;12.15;;;17.00;90.60;;;;;;5012885;28;20033;-71
2022/03/24 09:02:05;;;;;;;17.30;12.63;;;17.80;81.00;;;;;;5005396;28;20080;-71
2022/03/24 09:04:31;;;;;;;19.67;11.38;;;17.30;80.90;;;;;;5002826;28;20018;-72
2022/03/24 09:06:57;;;;;;;14.10;11.57;;;17.00;81.60;;;;;;5003481;28;20024;-71
2022/03/24 09:09:22;;;;;;;16.38;11.77;;;20.10;73.60;;;;;;5007645;28;20026;-71
2022/03/24 09:11:49;;;;;;;15.57;11.48;;;23.50;63.20;;;;;;5008290;28;20453;-72
2022/03/24 09:14:16;;;;;;;14.20;10.75;;;25.70;55.30;;;;;;5007009;28;20034;-71
2022/03/24 09:16:42;;;;;;;17.08;10.65;;;27.10;50.60;;;;;;5002958;28;25153;-72
2022/03/24 09:19:08;;;;;;;13.75;10.27;;;27.60;48.10;;;;;;5002833;28;20058;-72
2022/03/24 09:21:33;;;;;;;13.65;11.05;;;28.10;47.00;;;;;;5005954;28;20497;-72
2022/03/24 09:23:59;;;;;;;14.48;10.52;;;28.50;44.40;;;;;;5008289;28;20030;-72
2022/03/24 09:26:25;;;;;;;12.25;9.45;;;28.50;43.90;;;;;;5008522;28;20022;-72
2022/03/24 09:28:53;;;;;;;14.80;9.85;;;28.50;45.30;;;;;;5002713;28;20021;-71
2022/03/24 09:31:20;;;;;;;11.82;9.68;;;27.70;45.50;;;;;;4997805;28;20076;-72
2022/03/24 09:33:46;;;;;;;12.63;9.32;;;26.90;46.20;;;;;;5008137;28;20034;-72
2022/03/24 09:36:12;;;;;;;16.05;10.20;;;26.70;44.50;;;;;;5012458;28;20041;-72
2022/03/24 09:38:39;;;;;;;12.88;9.73;;;24.90;48.00;;;;;;5005841;28;20491;-72
2022/03/24 09:41:10;;;;;;;12.70;10.00;;;22.70;50.60;;;;;;5005924;28;20025;-72
2022/03/24 09:43:40;;;;;;;14.25;9.60;;;21.20;55.80;;;;;;5002774;28;20107;-72
2022/03/24 09:46:06;;;;;;;11.95;8.63;;;20.10;57.20;;;;;;4997686;28;20053;-72
2022/03/24 09:48:32;;;;;;;13.48;9.18;;;19.30;59.80;;;;;;5003841;28;20518;-72
2022/03/24 09:50:57;;;;;;;14.13;9.35;;;19.00;62.10;;;;;;5007825;28;20022;-72
2022/03/24 09:53:23;;;;;;;13.02;10.48;;;18.70;63.70;;;;;;5002305;28;20040;-72
2022/03/24 09:55:50;;;;;;;14.00;9.85;;;18.70;63.70;;;;;;5003194;28;20029;-72
2022/03/24 09:58:16;;;;;;;12.75;9.23;;;18.40;61.40;;;;;;5000826;28;20041;-72
2022/03/24 10:00:42;;;;;;;14.05;8.88;;;18.40;65.50;;;;;;5004883;28;20057;-72
2022/03/24 10:03:10;;;;;;;13.00;8.50;;;18.40;61.40;;;;;;5007867;28;20045;-71
2022/03/24 10:05:36;;;;;;;12.43;8.20;;;18.20;60.80;;;;;;5005095;28;20041;-71
2022/03/24 10:08:06;;;;;;;15.23;9.40;;;18.00;56.80;;;;;;5014202;28;20402;-71
2022/03/24 10:10:36;;;;;;;13.90;8.77;;;17.90;63.80;;;;;;5010258;28;20064;-72
2022/03/24 10:13:02;;;;;;;11.65;8.52;;;17.80;62.40;;;;;;5010892;28;20030;-74
2022/03/24 10:15:29;;;;;;;11.88;7.78;;;17.80;59.50;;;;;;5026113;28;20479;-71
2022/03/24 10:17:57;;;;;;;11.48;8.35;;;17.70;52.90;;;;;;5011251;28;20026;-71
2022/03/24 10:20:28;;;;;;;14.45;8.77;;;17.70;52.20;;;;;;5011411;28;20445;-72
2022/03/24 10:23:04;;;;;;;14.75;9.32;;;17.70;52.40;;;;;;4998304;28;20048;-72
2022/03/24 10:25:33;;;;;;;11.77;8.50;;;17.70;52.10;;;;;;4998476;28;20021;-71
2022/03/24 10:28:14;;;;;;;14.27;9.52;;;17.70;54.40;;;;;;5006605;28;20061;-72
2022/03/24 10:30:52;;;;;;;16.77;9.93;;;17.70;52.10;;;;;;5008159;28;20564;-71
2022/03/24 10:33:33;;;;;;;12.70;8.73;;;17.50;51.10;;;;;;5011220;28;20556;-71
2022/03/24 10:36:11;;;;;;;14.80;9.70;;;17.50;50.30;;;;;;5011085;28;20406;-71
